• Join FlightAware (Why Join?)
  • Login
  • US Flag 
06:46PM EDT


 

Airport Tracker/Info


-or-


 

Live Flight TrackerFlight Track Log ✈ VH-HZN ✈ 26-Sep-2013 ✈ YPTN / KTR - YNGU / RPM

Flight Track Log - Related Links

Times and Time Zones

All times are in EDT time to prevent confusion due to time zone crossing. See the VH-HZN flight status page for this flight to view local times or setup timezone preferences in your user account.

Time Position Orientation Groundspeed Altitude Reporting Facility
EDT Latitude Longitude Course Direction KTS MPH feet Rate Location/Type
01:24AM -14.5304 132.4806 95° East  Level Estimated
01:25AM -14.5334 132.5148 95° East  Level Estimated
01:26AM -14.5365 132.5491 95° East  Level Estimated
01:27AM -14.5396 132.5834 95° East  Level Estimated
01:28AM -14.5426 132.6177 95° East  Level Estimated
01:29AM -14.5457 132.6519 95° East  Level Estimated
01:30AM -14.5487 132.6862 95° East  Level Estimated
01:31AM -14.5518 132.7205 95° East  Level Estimated
01:32AM -14.5548 132.7548 95° East  Level Estimated
01:33AM -14.5578 132.7890 95° East  Level Estimated
01:34AM -14.5609 132.8233 95° East  Level Estimated
01:35AM -14.5639 132.8576 95° East  Level Estimated
01:36AM -14.5669 132.8919 95° East  Level Estimated
01:37AM -14.5699 132.9262 95° East  Level Estimated
01:38AM -14.5729 132.9604 95° East  Level Estimated
01:39AM -14.5759 132.9947 95° East  Level Estimated
01:40AM -14.5789 133.0290 95° East  Level Estimated
01:41AM -14.5819 133.0633 95° East  Level Estimated
01:42AM -14.5849 133.0976 95° East  Level Estimated
01:43AM -14.5879 133.1319 95° East  Level Estimated
01:44AM -14.5909 133.1662 95° East  Level Estimated
01:45AM -14.5939 133.2004 95° East  Level Estimated
01:46AM -14.5968 133.2347 95° East  Level Estimated
01:47AM -14.5998 133.2690 95° East  Level Estimated
01:48AM -14.6027 133.3033 95° East  Level Estimated
01:49AM -14.6057 133.3376 95° East  Level Estimated
01:50AM -14.6087 133.3719 95° East  Level Estimated
01:51AM -14.6116 133.4062 95° East  Level Estimated
01:52AM -14.6145 133.4405 95° East  Level Estimated
01:53AM -14.6175 133.4748 95° East  Level Estimated
01:54AM -14.6204 133.5091 95° East  Level Estimated
01:55AM -14.6233 133.5434 95° East  Level Estimated
01:56AM -14.6262 133.5777 95° East  Level Estimated
01:57AM -14.6292 133.6120 95° East  Level Estimated
01:58AM -14.6321 133.6463 95° East  Level Estimated
01:59AM -14.6350 133.6806 95° East  Level Estimated
02:00AM -14.6379 133.7149 95° East  Level Estimated
02:01AM -14.6408 133.7492 95° East  Level Estimated
02:02AM -14.6437 133.7835 95° East  Level Estimated
02:03AM -14.6465 133.8178 95° East  Level Estimated
02:04AM -14.6494 133.8521 95° East  Level Estimated
02:05AM -14.6523 133.8864 95° East  Level Estimated
02:06AM -14.6552 133.9207 95° East  Level Estimated
02:07AM -14.6580 133.9550 95° East  Level Estimated
02:08AM -14.6609 133.9893 95° East  Level Estimated
02:09AM -14.6637 134.0236 95° East  Level Estimated
02:10AM -14.6666 134.0579 95° East  Level Estimated
02:11AM -14.6694 134.0923 95° East  Level Estimated
02:12AM -14.6723 134.1266 95° East  Level Estimated
02:13AM -14.6751 134.1609 95° East  Level Estimated
02:14AM -14.6779 134.1952 95° East  Level Estimated
02:15AM -14.6808 134.2295 95° East  Level Estimated
02:16AM -14.6836 134.2638 95° East  Level Estimated
02:17AM -14.6864 134.2981 95° East  Level Estimated
02:18AM -14.6892 134.3325 95° East  Level Estimated
02:19AM -14.6920 134.3668 95° East  Level Estimated
02:20AM -14.6948 134.4011 95° East  Level Estimated
02:21AM -14.6976 134.4354 95° East  Level Estimated
02:22AM -14.7004 134.4697 95° East  Level Estimated
02:23AM -14.7032 134.5041 95° East  Level Estimated
02:24AM -14.7059 134.5384 95° East  Level Estimated
02:25AM -14.7087 134.5727 95° East  Level Estimated
02:26AM -14.7115 134.6070 95° East  Level Estimated
02:27AM -14.7143 134.6414 95° East  Level Estimated
02:28AM -14.7170 134.6757 95° East  Level Estimated
02:29AM -14.7198 134.7100 95° East  Level Estimated
02:30AM -14.7225 134.7444 95° East  Level Estimated
02:31AM -14.7228 134.7475 95° East  Level Estimated
02:32AM -14.7228 134.7475 North  Level Estimated
02:33AM -14.7228 134.7475 North  Level Estimated
02:34AM -14.7228 134.7475 North  Level Estimated
02:35AM -14.7228 134.7475 North  Level Estimated
02:36AM -14.7228 134.7475 North  Level Estimated
02:37AM -14.7228 134.7475 North  Level Estimated
02:38AM -14.7228 134.7475 North  Level Estimated
02:39AM -14.7228 134.7475 North  Level Estimated
02:40AM -14.7228 134.7475 North  Level Estimated
02:41AM -14.7228 134.7475 North  Level Estimated
02:42AM -14.7228 134.7475 North  Level Estimated
02:43AM -14.7228 134.7475 North  Level Estimated
02:44AM -14.7228 134.7475 North  Level Estimated
02:45AM -14.7228 134.7475 North  Level Estimated
02:46AM -14.7228 134.7475 North  Level Estimated